sensor_id;sensor_type;location;lat;lon;timestamp;P1;durP1;ratioP1;P2;durP2;ratioP2
31734;SDS011;18313;48.518;9.124;2023-01-19T00:00:55;17.65;;;8.32;;
31734;SDS011;18313;48.518;9.124;2023-01-19T00:03:22;18.80;;;8.57;;
31734;SDS011;18313;48.518;9.124;2023-01-19T00:05:50;17.20;;;9.15;;
31734;SDS011;18313;48.518;9.124;2023-01-19T00:08:18;13.45;;;8.00;;
31734;SDS011;18313;48.518;9.124;2023-01-19T00:10:46;15.48;;;8.50;;
31734;SDS011;18313;48.518;9.124;2023-01-19T00:13:16;14.77;;;8.70;;
31734;SDS011;18313;48.518;9.124;2023-01-19T00:15:43;16.25;;;8.63;;
31734;SDS011;18313;48.518;9.124;2023-01-19T00:18:11;15.50;;;8.02;;
31734;SDS011;18313;48.518;9.124;2023-01-19T00:20:38;16.98;;;8.18;;
31734;SDS011;18313;48.518;9.124;2023-01-19T00:23:06;15.20;;;8.60;;
31734;SDS011;18313;48.518;9.124;2023-01-19T00:25:34;15.98;;;8.82;;
31734;SDS011;18313;48.518;9.124;2023-01-19T00:28:08;16.25;;;8.60;;
31734;SDS011;18313;48.518;9.124;2023-01-19T00:30:39;15.65;;;7.82;;
31734;SDS011;18313;48.518;9.124;2023-01-19T00:33:08;13.63;;;8.18;;
31734;SDS011;18313;48.518;9.124;2023-01-19T00:35:36;13.15;;;7.95;;
31734;SDS011;18313;48.518;9.124;2023-01-19T00:38:03;13.82;;;7.75;;
31734;SDS011;18313;48.518;9.124;2023-01-19T00:40:30;16.23;;;7.95;;
31734;SDS011;18313;48.518;9.124;2023-01-19T00:42:58;13.02;;;7.90;;
31734;SDS011;18313;48.518;9.124;2023-01-19T00:45:26;15.13;;;7.70;;
31734;SDS011;18313;48.518;9.124;2023-01-19T00:47:53;14.40;;;8.05;;
31734;SDS011;18313;48.518;9.124;2023-01-19T00:50:23;12.50;;;7.70;;
31734;SDS011;18313;48.518;9.124;2023-01-19T00:52:53;17.70;;;8.70;;
31734;SDS011;18313;48.518;9.124;2023-01-19T00:55:21;16.25;;;8.45;;
31734;SDS011;18313;48.518;9.124;2023-01-19T00:57:49;14.65;;;8.70;;
31734;SDS011;18313;48.518;9.124;2023-01-19T01:00:17;15.38;;;8.90;;
31734;SDS011;18313;48.518;9.124;2023-01-19T01:02:45;16.60;;;9.05;;
31734;SDS011;18313;48.518;9.124;2023-01-19T01:05:15;14.95;;;8.75;;
31734;SDS011;18313;48.518;9.124;2023-01-19T01:07:43;18.13;;;9.35;;
31734;SDS011;18313;48.518;9.124;2023-01-19T01:10:12;13.98;;;8.65;;
31734;SDS011;18313;48.518;9.124;2023-01-19T01:12:41;14.05;;;8.38;;
31734;SDS011;18313;48.518;9.124;2023-01-19T01:15:25;14.30;;;8.52;;
31734;SDS011;18313;48.518;9.124;2023-01-19T01:17:53;13.65;;;8.20;;
31734;SDS011;18313;48.518;9.124;2023-01-19T01:20:22;14.65;;;8.75;;
31734;SDS011;18313;48.518;9.124;2023-01-19T01:22:52;16.77;;;8.95;;
31734;SDS011;18313;48.518;9.124;2023-01-19T01:25:21;18.90;;;10.35;;
31734;SDS011;18313;48.518;9.124;2023-01-19T01:27:50;19.58;;;10.32;;
31734;SDS011;18313;48.518;9.124;2023-01-19T01:30:18;16.50;;;9.18;;
31734;SDS011;18313;48.518;9.124;2023-01-19T01:32:46;16.58;;;9.90;;
31734;SDS011;18313;48.518;9.124;2023-01-19T01:35:14;17.83;;;9.48;;
31734;SDS011;18313;48.518;9.124;2023-01-19T01:37:42;18.88;;;9.68;;
31734;SDS011;18313;48.518;9.124;2023-01-19T01:40:10;16.58;;;8.95;;
31734;SDS011;18313;48.518;9.124;2023-01-19T01:42:39;14.27;;;8.52;;
31734;SDS011;18313;48.518;9.124;2023-01-19T01:47:57;15.85;;;9.20;;
31734;SDS011;18313;48.518;9.124;2023-01-19T01:50:52;16.95;;;9.77;;
31734;SDS011;18313;48.518;9.124;2023-01-19T01:53:44;16.52;;;9.82;;
31734;SDS011;18313;48.518;9.124;2023-01-19T01:56:16;19.10;;;9.85;;
31734;SDS011;18313;48.518;9.124;2023-01-19T01:58:49;16.40;;;9.97;;
31734;SDS011;18313;48.518;9.124;2023-01-19T02:01:16;18.45;;;10.32;;
31734;SDS011;18313;48.518;9.124;2023-01-19T02:04:02;19.48;;;10.75;;
31734;SDS011;18313;48.518;9.124;2023-01-19T02:06:29;18.05;;;10.38;;
31734;SDS011;18313;48.518;9.124;2023-01-19T02:08:58;21.52;;;10.60;;
31734;SDS011;18313;48.518;9.124;2023-01-19T02:11:48;16.67;;;10.18;;
31734;SDS011;18313;48.518;9.124;2023-01-19T02:14:34;19.48;;;10.55;;
31734;SDS011;18313;48.518;9.124;2023-01-19T02:17:04;17.65;;;10.00;;
31734;SDS011;18313;48.518;9.124;2023-01-19T02:19:33;18.17;;;10.13;;
31734;SDS011;18313;48.518;9.124;2023-01-19T02:24:34;17.83;;;10.10;;
31734;SDS011;18313;48.518;9.124;2023-01-19T02:27:01;18.00;;;10.25;;
31734;SDS011;18313;48.518;9.124;2023-01-19T02:29:30;19.08;;;10.00;;
31734;SDS011;18313;48.518;9.124;2023-01-19T02:31:58;19.50;;;9.50;;
31734;SDS011;18313;48.518;9.124;2023-01-19T02:34:26;16.98;;;10.65;;
31734;SDS011;18313;48.518;9.124;2023-01-19T02:37:00;19.30;;;10.43;;
31734;SDS011;18313;48.518;9.124;2023-01-19T02:39:33;16.67;;;9.88;;
31734;SDS011;18313;48.518;9.124;2023-01-19T02:42:33;17.23;;;9.07;;
31734;SDS011;18313;48.518;9.124;2023-01-19T02:45:05;17.58;;;10.07;;
31734;SDS011;18313;48.518;9.124;2023-01-19T02:47:38;15.75;;;9.63;;
31734;SDS011;18313;48.518;9.124;2023-01-19T02:58:33;16.95;;;9.85;;
31734;SDS011;18313;48.518;9.124;2023-01-19T03:01:16;17.77;;;9.50;;
31734;SDS011;18313;48.518;9.124;2023-01-19T03:03:57;19.48;;;10.60;;
31734;SDS011;18313;48.518;9.124;2023-01-19T03:06:52;19.50;;;10.32;;
31734;SDS011;18313;48.518;9.124;2023-01-19T03:09:27;20.33;;;9.77;;
31734;SDS011;18313;48.518;9.124;2023-01-19T03:12:12;16.02;;;9.63;;
31734;SDS011;18313;48.518;9.124;2023-01-19T03:14:49;16.50;;;10.20;;
31734;SDS011;18313;48.518;9.124;2023-01-19T03:17:21;19.35;;;10.05;;
31734;SDS011;18313;48.518;9.124;2023-01-19T03:19:48;16.83;;;9.77;;
31734;SDS011;18313;48.518;9.124;2023-01-19T03:22:20;17.35;;;9.45;;
31734;SDS011;18313;48.518;9.124;2023-01-19T03:24:49;17.20;;;9.15;;
31734;SDS011;18313;48.518;9.124;2023-01-19T03:29:56;16.48;;;9.38;;
31734;SDS011;18313;48.518;9.124;2023-01-19T03:32:31;19.92;;;10.55;;
31734;SDS011;18313;48.518;9.124;2023-01-19T03:35:04;18.45;;;9.48;;
31734;SDS011;18313;48.518;9.124;2023-01-19T03:37:38;19.63;;;10.00;;
31734;SDS011;18313;48.518;9.124;2023-01-19T03:40:08;17.92;;;9.48;;
31734;SDS011;18313;48.518;9.124;2023-01-19T03:42:36;18.48;;;10.10;;
31734;SDS011;18313;48.518;9.124;2023-01-19T03:45:05;18.05;;;9.77;;
31734;SDS011;18313;48.518;9.124;2023-01-19T03:47:34;21.63;;;10.07;;
31734;SDS011;18313;48.518;9.124;2023-01-19T03:50:02;18.10;;;9.73;;
31734;SDS011;18313;48.518;9.124;2023-01-19T03:52:35;17.60;;;10.30;;
31734;SDS011;18313;48.518;9.124;2023-01-19T03:55:03;21.55;;;10.57;;
31734;SDS011;18313;48.518;9.124;2023-01-19T03:57:31;17.88;;;10.13;;
31734;SDS011;18313;48.518;9.124;2023-01-19T03:59:58;19.42;;;10.45;;
31734;SDS011;18313;48.518;9.124;2023-01-19T04:02:25;22.60;;;10.60;;
31734;SDS011;18313;48.518;9.124;2023-01-19T04:04:53;18.17;;;10.15;;
31734;SDS011;18313;48.518;9.124;2023-01-19T04:07:20;15.13;;;8.98;;
31734;SDS011;18313;48.518;9.124;2023-01-19T04:09:47;18.02;;;10.40;;
31734;SDS011;18313;48.518;9.124;2023-01-19T04:12:14;18.65;;;9.77;;
31734;SDS011;18313;48.518;9.124;2023-01-19T04:14:41;15.32;;;8.90;;
31734;SDS011;18313;48.518;9.124;2023-01-19T04:17:09;14.88;;;8.80;;
31734;SDS011;18313;48.518;9.124;2023-01-19T04:19:36;15.85;;;9.23;;
31734;SDS011;18313;48.518;9.124;2023-01-19T04:22:03;17.45;;;9.70;;
31734;SDS011;18313;48.518;9.124;2023-01-19T04:24:30;16.92;;;9.90;;
31734;SDS011;18313;48.518;9.124;2023-01-19T04:26:57;17.48;;;9.32;;
31734;SDS011;18313;48.518;9.124;2023-01-19T04:29:24;16.42;;;9.63;;
31734;SDS011;18313;48.518;9.124;2023-01-19T04:31:51;17.58;;;9.93;;
31734;SDS011;18313;48.518;9.124;2023-01-19T04:34:18;15.50;;;9.60;;
31734;SDS011;18313;48.518;9.124;2023-01-19T04:36:45;16.48;;;9.57;;
31734;SDS011;18313;48.518;9.124;2023-01-19T04:39:16;20.90;;;10.25;;
31734;SDS011;18313;48.518;9.124;2023-01-19T04:41:43;22.83;;;10.60;;
31734;SDS011;18313;48.518;9.124;2023-01-19T04:44:10;16.08;;;9.30;;
31734;SDS011;18313;48.518;9.124;2023-01-19T04:46:37;18.85;;;9.88;;
31734;SDS011;18313;48.518;9.124;2023-01-19T04:49:04;18.25;;;8.80;;
31734;SDS011;18313;48.518;9.124;2023-01-19T04:51:32;18.27;;;9.73;;
31734;SDS011;18313;48.518;9.124;2023-01-19T04:53:59;17.27;;;9.18;;
31734;SDS011;18313;48.518;9.124;2023-01-19T04:56:27;15.57;;;9.57;;
31734;SDS011;18313;48.518;9.124;2023-01-19T04:58:55;20.38;;;10.15;;
31734;SDS011;18313;48.518;9.124;2023-01-19T05:01:21;18.85;;;9.50;;
31734;SDS011;18313;48.518;9.124;2023-01-19T05:03:49;17.08;;;10.05;;
31734;SDS011;18313;48.518;9.124;2023-01-19T05:06:16;16.63;;;9.52;;
31734;SDS011;18313;48.518;9.124;2023-01-19T05:08:43;15.73;;;10.10;;
31734;SDS011;18313;48.518;9.124;2023-01-19T05:11:10;15.57;;;9.27;;
31734;SDS011;18313;48.518;9.124;2023-01-19T05:13:37;18.67;;;10.50;;
31734;SDS011;18313;48.518;9.124;2023-01-19T05:16:05;19.23;;;10.85;;
31734;SDS011;18313;48.518;9.124;2023-01-19T05:18:32;25.88;;;12.40;;
31734;SDS011;18313;48.518;9.124;2023-01-19T05:21:02;24.02;;;11.70;;
31734;SDS011;18313;48.518;9.124;2023-01-19T05:23:29;20.90;;;9.45;;
31734;SDS011;18313;48.518;9.124;2023-01-19T05:25:58;16.95;;;9.38;;
31734;SDS011;18313;48.518;9.124;2023-01-19T05:28:28;17.67;;;9.88;;
31734;SDS011;18313;48.518;9.124;2023-01-19T05:30:55;18.17;;;9.98;;
31734;SDS011;18313;48.518;9.124;2023-01-19T05:33:23;18.25;;;10.27;;
31734;SDS011;18313;48.518;9.124;2023-01-19T05:35:50;18.63;;;9.73;;
31734;SDS011;18313;48.518;9.124;2023-01-19T05:38:19;16.65;;;9.27;;
31734;SDS011;18313;48.518;9.124;2023-01-19T05:41:00;16.42;;;9.32;;
31734;SDS011;18313;48.518;9.124;2023-01-19T05:43:28;16.60;;;10.40;;
31734;SDS011;18313;48.518;9.124;2023-01-19T05:45:55;15.95;;;9.05;;
31734;SDS011;18313;48.518;9.124;2023-01-19T05:48:22;19.20;;;9.80;;
31734;SDS011;18313;48.518;9.124;2023-01-19T05:50:50;18.33;;;9.57;;
31734;SDS011;18313;48.518;9.124;2023-01-19T05:53:21;18.45;;;9.57;;
31734;SDS011;18313;48.518;9.124;2023-01-19T05:55:49;17.08;;;10.15;;
31734;SDS011;18313;48.518;9.124;2023-01-19T05:58:16;18.13;;;9.75;;
31734;SDS011;18313;48.518;9.124;2023-01-19T06:00:43;15.90;;;9.27;;
31734;SDS011;18313;48.518;9.124;2023-01-19T06:03:10;16.33;;;9.63;;
31734;SDS011;18313;48.518;9.124;2023-01-19T06:05:38;15.88;;;9.30;;
31734;SDS011;18313;48.518;9.124;2023-01-19T06:08:05;14.85;;;8.82;;
31734;SDS011;18313;48.518;9.124;2023-01-19T06:10:32;17.30;;;9.38;;
31734;SDS011;18313;48.518;9.124;2023-01-19T06:12:59;16.55;;;9.70;;
31734;SDS011;18313;48.518;9.124;2023-01-19T06:15:27;16.58;;;9.75;;
31734;SDS011;18313;48.518;9.124;2023-01-19T06:17:54;15.98;;;9.52;;
31734;SDS011;18313;48.518;9.124;2023-01-19T06:20:21;17.70;;;9.57;;
31734;SDS011;18313;48.518;9.124;2023-01-19T06:22:48;15.52;;;9.18;;
31734;SDS011;18313;48.518;9.124;2023-01-19T06:25:16;19.33;;;9.15;;
31734;SDS011;18313;48.518;9.124;2023-01-19T06:27:43;16.13;;;8.63;;
31734;SDS011;18313;48.518;9.124;2023-01-19T06:30:11;16.83;;;8.45;;
31734;SDS011;18313;48.518;9.124;2023-01-19T06:32:39;17.70;;;9.10;;
31734;SDS011;18313;48.518;9.124;2023-01-19T06:35:06;14.32;;;8.18;;
31734;SDS011;18313;48.518;9.124;2023-01-19T06:37:34;13.70;;;8.82;;
31734;SDS011;18313;48.518;9.124;2023-01-19T06:40:01;15.23;;;8.90;;
31734;SDS011;18313;48.518;9.124;2023-01-19T06:42:29;15.93;;;8.50;;
31734;SDS011;18313;48.518;9.124;2023-01-19T06:44:56;14.90;;;8.38;;
31734;SDS011;18313;48.518;9.124;2023-01-19T06:47:23;14.85;;;8.88;;
31734;SDS011;18313;48.518;9.124;2023-01-19T06:49:51;16.05;;;9.23;;
31734;SDS011;18313;48.518;9.124;2023-01-19T06:52:17;16.33;;;8.48;;
31734;SDS011;18313;48.518;9.124;2023-01-19T06:54:45;15.13;;;8.20;;
31734;SDS011;18313;48.518;9.124;2023-01-19T06:57:15;12.82;;;8.30;;
31734;SDS011;18313;48.518;9.124;2023-01-19T06:59:42;15.23;;;8.63;;
31734;SDS011;18313;48.518;9.124;2023-01-19T07:02:09;15.70;;;7.65;;
31734;SDS011;18313;48.518;9.124;2023-01-19T07:04:53;15.57;;;8.13;;
31734;SDS011;18313;48.518;9.124;2023-01-19T07:07:21;14.65;;;8.43;;
31734;SDS011;18313;48.518;9.124;2023-01-19T07:09:48;17.63;;;7.65;;
31734;SDS011;18313;48.518;9.124;2023-01-19T07:12:19;15.13;;;7.70;;
31734;SDS011;18313;48.518;9.124;2023-01-19T07:14:47;15.25;;;8.30;;
31734;SDS011;18313;48.518;9.124;2023-01-19T07:17:14;14.80;;;7.88;;
31734;SDS011;18313;48.518;9.124;2023-01-19T07:19:42;14.30;;;7.88;;
31734;SDS011;18313;48.518;9.124;2023-01-19T07:22:09;15.00;;;8.05;;
31734;SDS011;18313;48.518;9.124;2023-01-19T07:24:36;16.67;;;8.27;;
31734;SDS011;18313;48.518;9.124;2023-01-19T07:27:03;14.30;;;8.10;;
31734;SDS011;18313;48.518;9.124;2023-01-19T07:29:31;16.77;;;7.90;;
31734;SDS011;18313;48.518;9.124;2023-01-19T07:31:58;13.23;;;7.97;;
31734;SDS011;18313;48.518;9.124;2023-01-19T07:34:25;13.82;;;7.63;;
31734;SDS011;18313;48.518;9.124;2023-01-19T07:36:52;15.05;;;8.05;;
31734;SDS011;18313;48.518;9.124;2023-01-19T07:39:21;15.80;;;8.32;;
31734;SDS011;18313;48.518;9.124;2023-01-19T07:41:48;17.80;;;8.73;;
31734;SDS011;18313;48.518;9.124;2023-01-19T07:44:15;21.50;;;8.52;;
31734;SDS011;18313;48.518;9.124;2023-01-19T07:46:42;19.30;;;8.63;;
31734;SDS011;18313;48.518;9.124;2023-01-19T07:49:09;16.02;;;8.93;;
31734;SDS011;18313;48.518;9.124;2023-01-19T07:51:37;13.25;;;7.50;;
31734;SDS011;18313;48.518;9.124;2023-01-19T07:54:04;14.13;;;8.07;;
31734;SDS011;18313;48.518;9.124;2023-01-19T07:56:33;18.52;;;9.00;;
31734;SDS011;18313;48.518;9.124;2023-01-19T07:59:00;18.33;;;9.43;;
31734;SDS011;18313;48.518;9.124;2023-01-19T08:01:28;20.02;;;10.50;;
31734;SDS011;18313;48.518;9.124;2023-01-19T08:03:55;22.00;;;9.85;;
31734;SDS011;18313;48.518;9.124;2023-01-19T08:06:23;16.45;;;8.77;;
31734;SDS011;18313;48.518;9.124;2023-01-19T08:08:55;15.35;;;8.63;;
31734;SDS011;18313;48.518;9.124;2023-01-19T08:11:22;17.80;;;9.93;;
31734;SDS011;18313;48.518;9.124;2023-01-19T08:13:49;16.02;;;9.50;;
31734;SDS011;18313;48.518;9.124;2023-01-19T08:16:17;15.77;;;8.45;;
31734;SDS011;18313;48.518;9.124;2023-01-19T08:18:44;16.98;;;8.73;;
31734;SDS011;18313;48.518;9.124;2023-01-19T08:21:12;15.82;;;8.55;;
31734;SDS011;18313;48.518;9.124;2023-01-19T08:23:40;15.52;;;8.20;;
31734;SDS011;18313;48.518;9.124;2023-01-19T08:26:19;16.30;;;9.10;;
31734;SDS011;18313;48.518;9.124;2023-01-19T08:28:58;17.45;;;8.70;;
31734;SDS011;18313;48.518;9.124;2023-01-19T08:31:28;16.48;;;8.85;;
31734;SDS011;18313;48.518;9.124;2023-01-19T08:33:55;17.35;;;9.40;;
31734;SDS011;18313;48.518;9.124;2023-01-19T08:36:22;16.90;;;10.00;;
31734;SDS011;18313;48.518;9.124;2023-01-19T08:38:50;17.33;;;9.90;;
31734;SDS011;18313;48.518;9.124;2023-01-19T08:41:18;20.33;;;11.40;;
31734;SDS011;18313;48.518;9.124;2023-01-19T08:43:45;18.98;;;9.88;;
31734;SDS011;18313;48.518;9.124;2023-01-19T08:46:12;15.57;;;8.93;;
31734;SDS011;18313;48.518;9.124;2023-01-19T08:48:46;17.00;;;9.90;;
31734;SDS011;18313;48.518;9.124;2023-01-19T08:51:16;17.90;;;9.50;;
31734;SDS011;18313;48.518;9.124;2023-01-19T08:53:43;15.52;;;9.25;;
31734;SDS011;18313;48.518;9.124;2023-01-19T08:56:10;15.32;;;9.23;;
31734;SDS011;18313;48.518;9.124;2023-01-19T08:58:39;23.73;;;10.50;;
31734;SDS011;18313;48.518;9.124;2023-01-19T09:01:07;23.98;;;12.95;;
31734;SDS011;18313;48.518;9.124;2023-01-19T09:03:40;20.35;;;12.30;;
31734;SDS011;18313;48.518;9.124;2023-01-19T09:06:08;17.60;;;10.45;;
31734;SDS011;18313;48.518;9.124;2023-01-19T09:08:36;18.90;;;11.70;;
31734;SDS011;18313;48.518;9.124;2023-01-19T09:11:03;16.25;;;8.70;;
31734;SDS011;18313;48.518;9.124;2023-01-19T09:13:36;13.85;;;7.63;;
31734;SDS011;18313;48.518;9.124;2023-01-19T09:16:04;12.55;;;6.97;;
31734;SDS011;18313;48.518;9.124;2023-01-19T09:18:33;12.10;;;7.25;;
31734;SDS011;18313;48.518;9.124;2023-01-19T09:21:01;13.32;;;7.30;;
31734;SDS011;18313;48.518;9.124;2023-01-19T09:23:29;13.90;;;7.63;;
31734;SDS011;18313;48.518;9.124;2023-01-19T09:25:57;10.88;;;6.80;;
31734;SDS011;18313;48.518;9.124;2023-01-19T09:28:29;12.02;;;6.68;;
31734;SDS011;18313;48.518;9.124;2023-01-19T09:30:56;11.05;;;6.00;;
31734;SDS011;18313;48.518;9.124;2023-01-19T09:33:27;11.65;;;6.50;;
31734;SDS011;18313;48.518;9.124;2023-01-19T09:35:54;9.95;;;6.00;;
31734;SDS011;18313;48.518;9.124;2023-01-19T09:38:22;11.13;;;5.97;;
31734;SDS011;18313;48.518;9.124;2023-01-19T09:40:53;14.35;;;6.07;;
31734;SDS011;18313;48.518;9.124;2023-01-19T09:43:36;11.88;;;6.10;;
31734;SDS011;18313;48.518;9.124;2023-01-19T09:46:12;10.47;;;6.50;;
31734;SDS011;18313;48.518;9.124;2023-01-19T09:48:55;11.05;;;5.95;;
31734;SDS011;18313;48.518;9.124;2023-01-19T09:51:28;12.85;;;7.20;;
31734;SDS011;18313;48.518;9.124;2023-01-19T09:54:22;11.48;;;6.50;;
31734;SDS011;18313;48.518;9.124;2023-01-19T09:56:56;10.98;;;6.60;;
31734;SDS011;18313;48.518;9.124;2023-01-19T09:59:29;12.60;;;6.38;;
31734;SDS011;18313;48.518;9.124;2023-01-19T10:04:53;11.60;;;6.22;;
31734;SDS011;18313;48.518;9.124;2023-01-19T10:10:34;10.10;;;6.18;;
31734;SDS011;18313;48.518;9.124;2023-01-19T10:13:21;12.18;;;6.13;;
31734;SDS011;18313;48.518;9.124;2023-01-19T10:18:27;15.52;;;6.43;;
31734;SDS011;18313;48.518;9.124;2023-01-19T10:21:22;11.40;;;5.88;;
31734;SDS011;18313;48.518;9.124;2023-01-19T10:23:57;11.80;;;5.43;;
31734;SDS011;18313;48.518;9.124;2023-01-19T10:26:41;13.43;;;5.82;;
31734;SDS011;18313;48.518;9.124;2023-01-19T10:29:26;11.23;;;5.82;;
31734;SDS011;18313;48.518;9.124;2023-01-19T10:32:07;11.05;;;6.18;;
31734;SDS011;18313;48.518;9.124;2023-01-19T10:34:38;12.80;;;7.07;;
31734;SDS011;18313;48.518;9.124;2023-01-19T10:37:16;12.45;;;6.88;;
31734;SDS011;18313;48.518;9.124;2023-01-19T10:39:53;13.60;;;7.65;;
31734;SDS011;18313;48.518;9.124;2023-01-19T10:42:33;14.32;;;7.82;;
31734;SDS011;18313;48.518;9.124;2023-01-19T10:45:02;14.73;;;7.40;;
31734;SDS011;18313;48.518;9.124;2023-01-19T10:47:32;11.27;;;7.05;;
31734;SDS011;18313;48.518;9.124;2023-01-19T10:50:17;11.63;;;7.22;;
31734;SDS011;18313;48.518;9.124;2023-01-19T10:52:50;18.48;;;6.93;;
31734;SDS011;18313;48.518;9.124;2023-01-19T10:55:22;12.63;;;6.32;;
31734;SDS011;18313;48.518;9.124;2023-01-19T10:57:54;11.32;;;6.07;;
31734;SDS011;18313;48.518;9.124;2023-01-19T11:00:36;9.48;;;4.82;;
31734;SDS011;18313;48.518;9.124;2023-01-19T11:05:51;9.88;;;5.47;;
31734;SDS011;18313;48.518;9.124;2023-01-19T11:08:27;12.57;;;5.85;;
31734;SDS011;18313;48.518;9.124;2023-01-19T11:10:58;10.52;;;5.63;;
31734;SDS011;18313;48.518;9.124;2023-01-19T11:13:33;12.43;;;5.88;;
31734;SDS011;18313;48.518;9.124;2023-01-19T11:16:05;11.75;;;5.95;;
31734;SDS011;18313;48.518;9.124;2023-01-19T11:18:43;12.43;;;5.85;;
31734;SDS011;18313;48.518;9.124;2023-01-19T11:21:13;12.50;;;5.88;;
31734;SDS011;18313;48.518;9.124;2023-01-19T11:23:45;16.40;;;7.97;;
31734;SDS011;18313;48.518;9.124;2023-01-19T11:26:25;9.63;;;5.93;;
31734;SDS011;18313;48.518;9.124;2023-01-19T11:28:56;9.80;;;5.60;;
31734;SDS011;18313;48.518;9.124;2023-01-19T11:34:21;9.77;;;5.93;;
31734;SDS011;18313;48.518;9.124;2023-01-19T11:36:59;9.60;;;5.55;;
31734;SDS011;18313;48.518;9.124;2023-01-19T11:39:33;12.50;;;5.45;;
31734;SDS011;18313;48.518;9.124;2023-01-19T11:42:22;11.68;;;6.15;;
31734;SDS011;18313;48.518;9.124;2023-01-19T11:47:24;10.45;;;5.50;;
31734;SDS011;18313;48.518;9.124;2023-01-19T11:52:48;11.93;;;5.90;;
31734;SDS011;18313;48.518;9.124;2023-01-19T11:58:17;10.93;;;5.85;;
31734;SDS011;18313;48.518;9.124;2023-01-19T12:00:47;10.80;;;5.53;;
31734;SDS011;18313;48.518;9.124;2023-01-19T12:03:34;10.52;;;5.80;;
31734;SDS011;18313;48.518;9.124;2023-01-19T12:06:12;9.95;;;5.10;;
31734;SDS011;18313;48.518;9.124;2023-01-19T12:08:53;8.88;;;4.30;;
31734;SDS011;18313;48.518;9.124;2023-01-19T12:11:29;7.78;;;4.40;;
31734;SDS011;18313;48.518;9.124;2023-01-19T12:13:59;8.02;;;4.22;;
31734;SDS011;18313;48.518;9.124;2023-01-19T12:16:29;6.85;;;4.07;;
31734;SDS011;18313;48.518;9.124;2023-01-19T12:19:14;10.65;;;4.15;;
31734;SDS011;18313;48.518;9.124;2023-01-19T12:21:43;9.52;;;4.35;;
31734;SDS011;18313;48.518;9.124;2023-01-19T12:24:37;7.35;;;4.57;;
31734;SDS011;18313;48.518;9.124;2023-01-19T12:27:06;9.98;;;4.45;;
31734;SDS011;18313;48.518;9.124;2023-01-19T12:29:44;11.35;;;4.80;;
31734;SDS011;18313;48.518;9.124;2023-01-19T12:34:40;7.20;;;4.07;;
31734;SDS011;18313;48.518;9.124;2023-01-19T12:37:32;7.93;;;3.78;;
31734;SDS011;18313;48.518;9.124;2023-01-19T12:42:55;7.10;;;3.47;;
31734;SDS011;18313;48.518;9.124;2023-01-19T12:45:34;7.35;;;3.60;;
31734;SDS011;18313;48.518;9.124;2023-01-19T12:48:02;5.75;;;3.33;;
31734;SDS011;18313;48.518;9.124;2023-01-19T12:50:34;8.20;;;4.15;;
31734;SDS011;18313;48.518;9.124;2023-01-19T12:53:14;9.18;;;3.88;;
31734;SDS011;18313;48.518;9.124;2023-01-19T12:55:43;6.75;;;4.15;;
31734;SDS011;18313;48.518;9.124;2023-01-19T12:58:13;7.80;;;4.15;;
31734;SDS011;18313;48.518;9.124;2023-01-19T13:00:44;9.63;;;4.25;;
31734;SDS011;18313;48.518;9.124;2023-01-19T13:18:46;6.68;;;3.50;;
31734;SDS011;18313;48.518;9.124;2023-01-19T13:21:25;4.82;;;3.13;;
31734;SDS011;18313;48.518;9.124;2023-01-19T13:23:54;8.25;;;3.53;;
31734;SDS011;18313;48.518;9.124;2023-01-19T13:26:24;7.30;;;3.45;;
31734;SDS011;18313;48.518;9.124;2023-01-19T13:28:55;5.53;;;3.10;;
31734;SDS011;18313;48.518;9.124;2023-01-19T13:31:32;6.65;;;3.03;;
31734;SDS011;18313;48.518;9.124;2023-01-19T13:34:01;7.30;;;4.35;;
31734;SDS011;18313;48.518;9.124;2023-01-19T13:36:36;5.28;;;3.00;;
31734;SDS011;18313;48.518;9.124;2023-01-19T13:39:10;5.88;;;2.80;;
31734;SDS011;18313;48.518;9.124;2023-01-19T13:41:44;5.43;;;2.80;;
31734;SDS011;18313;48.518;9.124;2023-01-19T13:46:46;10.27;;;2.87;;
31734;SDS011;18313;48.518;9.124;2023-01-19T13:54:48;4.70;;;2.80;;
31734;SDS011;18313;48.518;9.124;2023-01-19T14:02:37;6.78;;;3.17;;
31734;SDS011;18313;48.518;9.124;2023-01-19T14:05:39;6.75;;;3.50;;
31734;SDS011;18313;48.518;9.124;2023-01-19T14:10:42;8.68;;;2.90;;
31734;SDS011;18313;48.518;9.124;2023-01-19T14:15:40;5.28;;;2.95;;
31734;SDS011;18313;48.518;9.124;2023-01-19T14:20:54;7.63;;;3.50;;
31734;SDS011;18313;48.518;9.124;2023-01-19T14:45:18;5.45;;;2.72;;
31734;SDS011;18313;48.518;9.124;2023-01-19T14:47:56;6.63;;;3.03;;
31734;SDS011;18313;48.518;9.124;2023-01-19T14:50:32;6.28;;;3.33;;
31734;SDS011;18313;48.518;9.124;2023-01-19T14:53:35;4.32;;;2.90;;
31734;SDS011;18313;48.518;9.124;2023-01-19T14:55:55;5.03;;;2.90;;
31734;SDS011;18313;48.518;9.124;2023-01-19T14:58:31;5.18;;;2.97;;
31734;SDS011;18313;48.518;9.124;2023-01-19T15:01:00;4.70;;;3.05;;
31734;SDS011;18313;48.518;9.124;2023-01-19T15:03:27;4.68;;;2.60;;
31734;SDS011;18313;48.518;9.124;2023-01-19T15:06:19;7.63;;;2.90;;
31734;SDS011;18313;48.518;9.124;2023-01-19T15:08:47;7.40;;;4.53;;
31734;SDS011;18313;48.518;9.124;2023-01-19T15:11:31;6.70;;;3.63;;
31734;SDS011;18313;48.518;9.124;2023-01-19T15:14:00;7.47;;;3.70;;
31734;SDS011;18313;48.518;9.124;2023-01-19T15:16:28;5.13;;;3.45;;
31734;SDS011;18313;48.518;9.124;2023-01-19T15:18:58;6.00;;;3.30;;
31734;SDS011;18313;48.518;9.124;2023-01-19T15:21:25;5.57;;;3.42;;
31734;SDS011;18313;48.518;9.124;2023-01-19T15:23:53;7.55;;;3.67;;
31734;SDS011;18313;48.518;9.124;2023-01-19T15:26:22;7.63;;;3.55;;
31734;SDS011;18313;48.518;9.124;2023-01-19T15:28:50;6.90;;;3.13;;
31734;SDS011;18313;48.518;9.124;2023-01-19T15:31:19;20.50;;;7.47;;
31734;SDS011;18313;48.518;9.124;2023-01-19T15:33:47;13.63;;;4.20;;
31734;SDS011;18313;48.518;9.124;2023-01-19T15:36:16;16.60;;;6.35;;
31734;SDS011;18313;48.518;9.124;2023-01-19T15:38:45;12.65;;;4.45;;
31734;SDS011;18313;48.518;9.124;2023-01-19T15:41:13;8.77;;;4.32;;
31734;SDS011;18313;48.518;9.124;2023-01-19T15:43:51;9.43;;;4.88;;
31734;SDS011;18313;48.518;9.124;2023-01-19T15:46:18;8.40;;;4.10;;
31734;SDS011;18313;48.518;9.124;2023-01-19T15:48:47;8.00;;;3.95;;
31734;SDS011;18313;48.518;9.124;2023-01-19T15:51:17;10.18;;;4.40;;
31734;SDS011;18313;48.518;9.124;2023-01-19T15:53:46;8.70;;;4.40;;
31734;SDS011;18313;48.518;9.124;2023-01-19T15:56:21;10.13;;;5.70;;
31734;SDS011;18313;48.518;9.124;2023-01-19T15:58:51;14.13;;;5.90;;
31734;SDS011;18313;48.518;9.124;2023-01-19T16:01:20;8.00;;;4.38;;
31734;SDS011;18313;48.518;9.124;2023-01-19T16:03:48;8.35;;;4.50;;
31734;SDS011;18313;48.518;9.124;2023-01-19T16:06:16;9.98;;;4.70;;
31734;SDS011;18313;48.518;9.124;2023-01-19T16:08:43;10.30;;;4.05;;
31734;SDS011;18313;48.518;9.124;2023-01-19T16:11:12;8.38;;;4.07;;
31734;SDS011;18313;48.518;9.124;2023-01-19T16:13:42;8.80;;;4.32;;
31734;SDS011;18313;48.518;9.124;2023-01-19T16:16:14;7.32;;;3.78;;
31734;SDS011;18313;48.518;9.124;2023-01-19T16:18:44;8.50;;;4.07;;
31734;SDS011;18313;48.518;9.124;2023-01-19T16:21:12;10.75;;;4.55;;
31734;SDS011;18313;48.518;9.124;2023-01-19T16:23:39;8.90;;;4.10;;
31734;SDS011;18313;48.518;9.124;2023-01-19T16:26:20;7.95;;;3.70;;
31734;SDS011;18313;48.518;9.124;2023-01-19T16:28:47;7.35;;;3.97;;
31734;SDS011;18313;48.518;9.124;2023-01-19T16:31:14;7.03;;;4.05;;
31734;SDS011;18313;48.518;9.124;2023-01-19T16:33:43;7.70;;;4.47;;
31734;SDS011;18313;48.518;9.124;2023-01-19T16:36:20;8.73;;;4.60;;
31734;SDS011;18313;48.518;9.124;2023-01-19T16:38:48;9.60;;;4.72;;
31734;SDS011;18313;48.518;9.124;2023-01-19T16:41:16;9.63;;;4.68;;